Time;durP1;ratioP1;P1;durP2;ratioP2;P2;SDS_P1;SDS_P2;PMS_P1;PMS_P2;Temp;Humidity;BMP_temperature;BMP_pressure;BME280_temperature;BME280_humidity;BME280_pressure;Samples;Min_cycle;Max_cycle;Signal;HPM_P1;HPM_P2
2023/09/12 00:00:56;;;;;;;7.50;5.90;;;18.20;99.90;;;;;;5056994;28;20035;-83
2023/09/12 00:03:23;;;;;;;7.72;6.55;;;18.20;99.90;;;;;;5058256;28;20035;-83
2023/09/12 00:05:56;;;;;;;7.72;6.70;;;18.10;99.90;;;;;;5076760;28;20028;-83
2023/09/12 00:08:22;;;;;;;8.10;7.10;;;18.10;99.90;;;;;;5059136;28;20082;-83
2023/09/12 00:11:03;;;;;;;7.95;7.00;;;18.00;99.90;;;;;;5076373;28;20020;-83
2023/09/12 00:13:30;;;;;;;7.13;6.13;;;17.90;99.90;;;;;;5076052;28;20028;-83
2023/09/12 00:15:56;;;;;;;7.18;6.40;;;17.90;99.90;;;;;;5041719;28;20124;-83
2023/09/12 00:18:22;;;;;;;9.05;7.03;;;17.90;99.90;;;;;;5076009;28;20017;-83
2023/09/12 00:20:47;;;;;;;9.82;7.35;;;17.80;99.90;;;;;;5074920;28;20024;-83
2023/09/12 00:23:13;;;;;;;10.70;7.43;;;17.80;99.90;;;;;;5041407;28;20052;-83
2023/09/12 00:25:39;;;;;;;7.70;6.90;;;17.70;99.90;;;;;;5075878;28;20036;-83
2023/09/12 00:28:04;;;;;;;9.35;7.20;;;17.70;99.90;;;;;;5076199;28;20084;-83
2023/09/12 00:30:30;;;;;;;9.43;6.72;;;17.70;99.90;;;;;;5076631;28;20036;-83
2023/09/12 00:32:56;;;;;;;9.23;7.60;;;17.70;99.90;;;;;;5058488;28;20516;-83
2023/09/12 00:35:21;;;;;;;7.40;6.60;;;17.70;99.90;;;;;;5038185;28;20490;-82
2023/09/12 00:37:47;;;;;;;8.05;6.85;;;17.60;99.90;;;;;;5037795;28;20036;-83
2023/09/12 00:40:13;;;;;;;7.95;6.80;;;17.60;99.90;;;;;;5054343;28;20078;-82
2023/09/12 00:42:38;;;;;;;7.40;6.53;;;17.60;99.90;;;;;;5037683;28;20021;-83
2023/09/12 00:45:04;;;;;;;7.85;6.53;;;17.60;99.90;;;;;;5053999;28;20128;-83
2023/09/12 00:47:31;;;;;;;9.10;7.07;;;17.50;99.90;;;;;;5037363;28;20115;-83
2023/09/12 00:49:57;;;;;;;8.07;6.60;;;17.50;99.90;;;;;;5055214;28;20029;-83
2023/09/12 00:52:29;;;;;;;8.25;6.85;;;17.50;99.90;;;;;;5037506;28;20033;-83
2023/09/12 00:54:55;;;;;;;8.13;6.63;;;17.50;99.90;;;;;;5053852;28;20033;-82
2023/09/12 00:57:21;;;;;;;7.65;6.53;;;17.40;99.90;;;;;;5074309;28;20036;-83
2023/09/12 00:59:52;;;;;;;7.85;6.82;;;17.30;99.90;;;;;;5057262;28;20499;-83
2023/09/12 01:02:22;;;;;;;8.85;7.13;;;17.20;99.90;;;;;;5071531;28;20408;-83
2023/09/12 01:04:48;;;;;;;11.45;7.53;;;17.10;99.90;;;;;;5058909;28;20445;-83
2023/09/12 01:07:14;;;;;;;9.20;6.60;;;17.10;99.90;;;;;;5056825;28;20029;-83
2023/09/12 01:09:40;;;;;;;7.70;6.40;;;17.00;99.90;;;;;;5074203;28;20174;-83
2023/09/12 01:12:07;;;;;;;8.73;7.07;;;17.10;99.90;;;;;;5056742;28;20488;-82
2023/09/12 01:14:32;;;;;;;8.23;6.85;;;17.10;99.90;;;;;;5072818;28;20024;-82
2023/09/12 01:16:59;;;;;;;8.30;6.50;;;17.00;99.90;;;;;;5073364;28;20392;-82
2023/09/12 01:19:25;;;;;;;10.40;6.88;;;17.10;99.90;;;;;;5073858;28;20027;-83
2023/09/12 01:22:29;;;;;;;8.95;7.10;;;17.00;99.90;;;;;;5073677;28;20025;-83
2023/09/12 01:25:11;;;;;;;9.07;7.25;;;17.00;99.90;;;;;;5025804;28;20024;-83
2023/09/12 01:27:51;;;;;;;8.48;7.07;;;16.90;99.90;;;;;;5038958;28;20032;-83
2023/09/12 01:30:29;;;;;;;8.30;7.07;;;16.80;99.90;;;;;;5045147;28;20032;-83
2023/09/12 01:32:55;;;;;;;8.90;7.13;;;16.80;99.90;;;;;;5068881;28;20032;-83
2023/09/12 01:35:20;;;;;;;8.63;6.70;;;16.70;99.90;;;;;;5074058;28;20476;-83
2023/09/12 01:37:46;;;;;;;8.82;6.97;;;16.70;99.90;;;;;;5056542;28;20031;-83
2023/09/12 01:40:12;;;;;;;10.20;7.88;;;16.70;99.90;;;;;;5055000;28;20435;-83
2023/09/12 01:42:42;;;;;;;9.20;7.15;;;16.80;99.90;;;;;;5038783;28;20086;-83
2023/09/12 01:45:10;;;;;;;9.35;7.57;;;16.70;99.90;;;;;;5072922;28;20017;-83
2023/09/12 01:47:37;;;;;;;9.15;6.90;;;16.70;99.90;;;;;;5072840;28;20016;-83
2023/09/12 01:50:05;;;;;;;8.55;7.13;;;16.70;99.90;;;;;;5055738;28;20111;-82
2023/09/12 01:52:32;;;;;;;8.23;7.13;;;16.70;99.90;;;;;;5074127;28;20059;-82
2023/09/12 01:54:58;;;;;;;9.82;7.18;;;16.70;99.90;;;;;;5073978;28;20025;-82
2023/09/12 01:57:24;;;;;;;8.10;6.60;;;16.70;99.90;;;;;;5054196;28;20052;-83
2023/09/12 01:59:49;;;;;;;9.32;7.28;;;16.70;99.90;;;;;;5036615;28;20059;-82
2023/09/12 02:02:19;;;;;;;8.57;7.05;;;16.70;99.90;;;;;;5070284;28;20052;-83
2023/09/12 02:05:09;;;;;;;9.93;7.95;;;16.70;99.90;;;;;;5054842;28;20031;-83
2023/09/12 02:07:38;;;;;;;9.13;7.43;;;16.70;99.90;;;;;;5055143;28;20047;-83
2023/09/12 02:10:05;;;;;;;8.60;7.10;;;16.70;99.90;;;;;;5071131;28;20032;-84
2023/09/12 02:12:32;;;;;;;9.07;7.25;;;16.60;99.90;;;;;;5073889;28;20080;-83
2023/09/12 02:14:57;;;;;;;9.57;7.18;;;16.60;99.90;;;;;;5074856;28;20503;-83
2023/09/12 02:17:23;;;;;;;10.70;7.90;;;16.60;99.90;;;;;;5040342;28;20032;-83
2023/09/12 02:19:49;;;;;;;9.80;7.55;;;16.60;99.90;;;;;;5076616;28;20050;-83
2023/09/12 02:22:15;;;;;;;11.20;8.35;;;16.50;99.90;;;;;;5060292;28;20374;-83
2023/09/12 02:24:40;;;;;;;11.38;8.45;;;16.50;99.90;;;;;;5055499;28;20024;-83
2023/09/12 02:27:06;;;;;;;10.68;8.52;;;16.50;99.90;;;;;;5056449;28;20036;-83
2023/09/12 02:29:32;;;;;;;10.25;8.02;;;16.50;99.90;;;;;;5038001;28;20118;-83
2023/09/12 02:31:58;;;;;;;9.02;7.55;;;16.40;99.90;;;;;;5056983;28;20032;-84
2023/09/12 02:34:24;;;;;;;9.25;7.25;;;16.40;99.90;;;;;;5073172;28;20392;-83
2023/09/12 02:36:49;;;;;;;10.13;6.90;;;16.30;99.90;;;;;;5074249;28;20029;-83
2023/09/12 02:39:15;;;;;;;8.55;6.55;;;16.20;99.90;;;;;;5056186;28;20498;-83
2023/09/12 02:41:41;;;;;;;7.18;6.47;;;16.30;99.90;;;;;;5074247;28;20025;-83
2023/09/12 02:44:07;;;;;;;7.20;6.47;;;16.20;99.90;;;;;;5056050;28;20465;-83
2023/09/12 02:46:33;;;;;;;8.70;7.00;;;16.20;99.90;;;;;;5056218;28;20546;-83
2023/09/12 02:48:58;;;;;;;7.95;6.93;;;16.20;99.90;;;;;;5073870;28;20506;-82
2023/09/12 02:51:25;;;;;;;8.75;7.57;;;16.20;99.90;;;;;;5055865;28;20111;-83
2023/09/12 02:53:51;;;;;;;9.80;7.60;;;16.20;99.90;;;;;;5068229;28;20021;-83
2023/09/12 02:56:17;;;;;;;9.90;7.90;;;16.20;99.90;;;;;;5069094;28;20029;-83
2023/09/12 02:58:46;;;;;;;9.98;7.88;;;16.10;99.90;;;;;;5051890;28;20040;-83
2023/09/12 03:01:19;;;;;;;10.90;7.40;;;16.10;99.90;;;;;;5072259;28;20540;-83
2023/09/12 03:03:49;;;;;;;8.05;7.18;;;16.10;99.90;;;;;;5073642;28;20025;-83
2023/09/12 03:06:15;;;;;;;8.77;7.50;;;16.10;99.90;;;;;;5073910;28;20031;-83
2023/09/12 03:08:43;;;;;;;9.98;8.07;;;16.10;99.90;;;;;;5056223;28;20396;-83
2023/09/12 03:11:09;;;;;;;9.05;7.43;;;16.00;99.90;;;;;;5067523;28;20024;-83
2023/09/12 03:13:36;;;;;;;9.68;7.68;;;16.00;99.90;;;;;;5053616;28;20162;-83
2023/09/12 03:16:01;;;;;;;9.25;8.07;;;16.00;99.90;;;;;;5056211;28;20035;-83
2023/09/12 03:18:27;;;;;;;9.13;8.05;;;16.00;99.90;;;;;;5055599;28;20021;-83
2023/09/12 03:20:53;;;;;;;11.35;8.90;;;16.00;99.90;;;;;;5055838;28;20035;-83
2023/09/12 03:23:22;;;;;;;10.23;8.23;;;16.00;99.90;;;;;;5044172;28;20587;-83
2023/09/12 03:25:47;;;;;;;11.05;8.18;;;16.00;99.90;;;;;;5054732;28;20029;-83
2023/09/12 03:28:13;;;;;;;8.40;7.50;;;16.00;99.90;;;;;;5073548;28;20112;-83
2023/09/12 03:30:39;;;;;;;8.75;7.35;;;15.90;99.90;;;;;;5073992;28;20036;-83
2023/09/12 03:33:06;;;;;;;10.48;7.22;;;15.90;99.90;;;;;;5074459;28;20074;-83
2023/09/12 03:35:32;;;;;;;8.68;7.25;;;15.90;99.90;;;;;;5059778;28;20461;-83
2023/09/12 03:37:58;;;;;;;9.20;7.55;;;15.90;99.90;;;;;;5061279;28;20020;-83
2023/09/12 03:40:24;;;;;;;9.80;7.75;;;15.80;99.90;;;;;;5060736;28;20032;-83
2023/09/12 03:42:50;;;;;;;10.57;8.32;;;15.80;99.90;;;;;;5048314;28;20061;-82
2023/09/12 03:45:15;;;;;;;10.77;8.27;;;15.80;99.90;;;;;;5058725;28;20492;-83
2023/09/12 03:47:42;;;;;;;9.52;7.97;;;15.80;99.90;;;;;;5076641;28;20032;-82
2023/09/12 03:50:08;;;;;;;9.38;7.88;;;15.70;99.90;;;;;;5054812;28;20024;-82
2023/09/12 03:52:33;;;;;;;10.80;7.47;;;15.70;99.90;;;;;;5076096;28;20032;-82
2023/09/12 03:55:00;;;;;;;9.45;7.82;;;15.70;99.90;;;;;;5054314;28;20052;-82
2023/09/12 03:57:26;;;;;;;9.82;7.68;;;15.70;99.90;;;;;;5039511;28;20025;-82
2023/09/12 03:59:52;;;;;;;10.00;7.75;;;15.70;99.90;;;;;;5038688;28;20058;-82
2023/09/12 04:02:18;;;;;;;11.13;7.88;;;15.60;99.90;;;;;;5038221;28;20365;-82
2023/09/12 04:04:44;;;;;;;10.23;7.90;;;15.60;99.90;;;;;;5034875;28;20039;-82
2023/09/12 04:07:10;;;;;;;12.02;8.32;;;15.50;99.90;;;;;;5058046;28;20029;-82
2023/09/12 04:09:35;;;;;;;13.57;8.70;;;15.40;99.90;;;;;;5058124;28;20123;-83
2023/09/12 04:12:01;;;;;;;10.30;7.82;;;15.40;99.90;;;;;;5058249;28;20020;-83
2023/09/12 04:14:27;;;;;;;9.23;8.05;;;15.30;99.90;;;;;;5058310;28;20083;-82
2023/09/12 04:16:52;;;;;;;9.88;7.80;;;15.30;99.90;;;;;;5070646;28;20021;-82
2023/09/12 04:19:18;;;;;;;10.05;7.63;;;15.30;99.90;;;;;;5054922;28;20075;-82
2023/09/12 04:21:44;;;;;;;8.80;7.53;;;15.30;99.90;;;;;;5055854;28;20028;-83
2023/09/12 04:24:09;;;;;;;9.23;7.32;;;15.30;99.90;;;;;;5054784;28;20037;-84
2023/09/12 04:26:35;;;;;;;9.77;8.25;;;15.30;99.90;;;;;;5056382;28;20119;-83
2023/09/12 04:29:00;;;;;;;9.65;7.75;;;15.30;99.90;;;;;;5070374;28;20029;-82
2023/09/12 04:31:26;;;;;;;9.68;7.90;;;15.30;99.90;;;;;;5058224;28;20511;-82
2023/09/12 04:33:53;;;;;;;10.38;7.93;;;15.30;99.90;;;;;;5024767;28;20040;-82
2023/09/12 04:36:19;;;;;;;11.38;8.65;;;15.30;99.90;;;;;;5056193;28;20025;-83
2023/09/12 04:38:44;;;;;;;9.50;7.97;;;15.30;99.90;;;;;;5054708;28;20112;-82
2023/09/12 04:41:15;;;;;;;9.23;7.85;;;15.30;99.90;;;;;;5055035;28;20048;-82
2023/09/12 04:43:40;;;;;;;9.33;7.90;;;15.30;99.90;;;;;;5056514;28;20119;-83
2023/09/12 04:46:06;;;;;;;9.73;8.00;;;15.30;99.90;;;;;;5056756;28;20052;-82
2023/09/12 04:48:32;;;;;;;9.05;7.82;;;15.30;99.90;;;;;;5058254;28;20033;-82
2023/09/12 04:50:58;;;;;;;9.57;8.20;;;15.30;99.90;;;;;;5076147;28;20032;-83
2023/09/12 04:53:24;;;;;;;11.55;8.60;;;15.20;99.90;;;;;;5074537;28;20534;-82
2023/09/12 04:55:53;;;;;;;12.13;8.45;;;15.20;99.90;;;;;;5075183;28;20033;-83
2023/09/12 04:58:18;;;;;;;10.23;7.72;;;15.20;99.90;;;;;;5075253;28;20027;-82
2023/09/12 05:00:45;;;;;;;9.48;7.07;;;15.20;99.90;;;;;;5074462;28;20029;-82
2023/09/12 05:03:11;;;;;;;9.75;7.10;;;15.20;99.90;;;;;;5070985;28;20031;-82
2023/09/12 05:05:36;;;;;;;10.18;7.30;;;15.20;99.90;;;;;;5074904;28;20392;-82
2023/09/12 05:08:03;;;;;;;10.82;7.75;;;15.20;99.90;;;;;;5070530;28;20027;-82
2023/09/12 05:10:29;;;;;;;8.73;7.35;;;15.10;99.90;;;;;;5069667;28;20029;-82
2023/09/12 05:12:57;;;;;;;12.57;8.13;;;15.10;99.90;;;;;;5049543;28;20136;-82
2023/09/12 05:15:23;;;;;;;9.93;7.90;;;15.10;99.90;;;;;;5061082;28;20071;-83
2023/09/12 05:17:49;;;;;;;9.20;7.75;;;15.00;99.90;;;;;;5053025;28;20020;-82
2023/09/12 05:20:14;;;;;;;11.18;8.48;;;15.00;99.90;;;;;;5057166;28;20484;-83
2023/09/12 05:22:40;;;;;;;10.40;8.35;;;15.00;99.90;;;;;;5075828;28;20082;-82
2023/09/12 05:25:06;;;;;;;10.80;8.32;;;15.00;99.90;;;;;;5058009;28;20036;-82
2023/09/12 05:27:31;;;;;;;9.63;8.13;;;15.00;99.90;;;;;;5069479;28;20111;-83
2023/09/12 05:29:57;;;;;;;10.82;8.15;;;15.00;99.90;;;;;;5056134;28;20060;-83
2023/09/12 05:32:23;;;;;;;11.95;8.15;;;15.00;99.90;;;;;;5074472;28;20029;-83
2023/09/12 05:34:49;;;;;;;11.13;8.68;;;15.00;99.90;;;;;;5074395;28;20485;-83
2023/09/12 05:37:15;;;;;;;10.48;8.77;;;15.00;99.90;;;;;;5072207;28;20495;-82
2023/09/12 05:39:41;;;;;;;13.63;8.50;;;15.10;99.90;;;;;;5075989;28;20024;-81
2023/09/12 05:42:07;;;;;;;11.52;8.85;;;15.00;99.90;;;;;;5047488;28;20021;-83
2023/09/12 05:44:33;;;;;;;10.43;8.75;;;15.10;99.90;;;;;;5071243;28;20048;-83
2023/09/12 05:46:58;;;;;;;12.15;9.15;;;15.10;99.90;;;;;;5054875;28;20048;-82
2023/09/12 05:49:24;;;;;;;9.77;7.72;;;15.10;99.90;;;;;;5061975;28;20032;-82
2023/09/12 05:51:50;;;;;;;13.00;9.07;;;15.20;99.90;;;;;;5073036;28;20108;-81
2023/09/12 05:54:16;;;;;;;12.15;9.23;;;15.20;99.90;;;;;;5061551;28;20032;-80
2023/09/12 05:56:42;;;;;;;11.75;9.07;;;15.20;99.90;;;;;;5076440;28;20028;-80
2023/09/12 05:59:08;;;;;;;11.00;9.00;;;15.20;99.90;;;;;;5068021;28;20037;-81
2023/09/12 06:01:34;;;;;;;13.10;9.20;;;15.20;99.90;;;;;;5072297;28;20020;-80
2023/09/12 06:03:59;;;;;;;10.88;8.65;;;15.20;99.90;;;;;;5045414;28;20497;-84
2023/09/12 06:06:25;;;;;;;11.00;9.25;;;15.30;99.90;;;;;;5063405;28;20038;-81
2023/09/12 06:08:53;;;;;;;10.52;8.73;;;15.30;99.90;;;;;;5054805;28;20036;-80
2023/09/12 06:11:19;;;;;;;15.20;9.57;;;15.30;99.90;;;;;;5068058;28;20025;-81
2023/09/12 06:13:44;;;;;;;12.10;8.77;;;15.30;99.90;;;;;;5071683;28;20046;-81
2023/09/12 06:16:10;;;;;;;11.38;8.90;;;15.40;99.90;;;;;;5039302;28;20032;-82
2023/09/12 06:18:35;;;;;;;13.52;9.23;;;15.40;99.90;;;;;;5040406;28;20062;-80
2023/09/12 06:21:07;;;;;;;15.15;9.45;;;15.40;99.90;;;;;;5062943;28;20028;-80
2023/09/12 06:23:32;;;;;;;;;;;15.50;99.90;;;;;;5081513;28;20028;-80
2023/09/12 06:25:58;;;;;;;13.40;9.55;;;15.50;99.90;;;;;;5078404;28;20269;-80
2023/09/12 06:28:30;;;;;;;13.75;9.98;;;15.60;99.90;;;;;;5061423;28;20550;-81
2023/09/12 06:30:57;;;;;;;14.73;11.07;;;15.60;99.90;;;;;;5080947;28;20480;-81
2023/09/12 06:33:23;;;;;;;11.68;10.23;;;15.70;99.90;;;;;;5040892;28;1136677;-81
2023/09/12 06:35:50;;;;;;;12.05;9.82;;;15.70;99.90;;;;;;5081812;28;20051;-81
2023/09/12 06:38:16;;;;;;;15.65;10.43;;;15.80;99.90;;;;;;5082183;28;20027;-81
2023/09/12 06:40:47;;;;;;;12.30;10.00;;;15.80;99.90;;;;;;5081336;28;20043;-81
2023/09/12 06:43:12;;;;;;;12.18;10.52;;;15.90;99.90;;;;;;5080678;28;20020;-81
2023/09/12 06:45:38;;;;;;;14.00;11.45;;;16.00;99.90;;;;;;5071875;28;20037;-80
2023/09/12 06:48:04;;;;;;;15.20;12.13;;;16.00;99.90;;;;;;5067293;28;20082;-81
2023/09/12 06:50:30;;;;;;;20.65;15.52;;;16.00;99.90;;;;;;5068710;28;20483;-80
2023/09/12 06:52:56;;;;;;;22.55;17.13;;;16.10;99.90;;;;;;5066626;28;20052;-81
2023/09/12 06:55:21;;;;;;;20.38;14.80;;;16.20;99.90;;;;;;5050645;28;20028;-81
2023/09/12 06:57:47;;;;;;;18.20;14.45;;;16.20;99.90;;;;;;5070967;28;20032;-80
2023/09/12 07:00:13;;;;;;;17.98;14.20;;;16.30;99.90;;;;;;5052218;28;20142;-80
2023/09/12 07:02:39;;;;;;;18.50;14.82;;;16.40;99.90;;;;;;5057565;28;20380;-81
2023/09/12 07:05:05;;;;;;;18.92;15.70;;;16.40;99.90;;;;;;5059927;28;20040;-80
2023/09/12 07:07:32;;;;;;;19.08;15.70;;;16.50;99.90;;;;;;5078489;28;20162;-80
2023/09/12 07:09:59;;;;;;;22.63;15.93;;;16.60;99.90;;;;;;5063872;28;20028;-81
2023/09/12 07:12:26;;;;;;;23.73;17.77;;;16.70;99.90;;;;;;5082022;28;20078;-81
2023/09/12 07:14:51;;;;;;;17.30;14.02;;;16.80;99.90;;;;;;5081566;28;20028;-80
2023/09/12 07:17:17;;;;;;;15.75;13.20;;;16.90;99.90;;;;;;5065094;28;20029;-80
2023/09/12 07:19:43;;;;;;;19.55;16.00;;;16.90;99.90;;;;;;5064600;28;20036;-81
2023/09/12 07:22:09;;;;;;;22.38;16.35;;;17.00;99.90;;;;;;5064316;28;20408;-81
2023/09/12 07:24:35;;;;;;;26.65;16.60;;;17.20;99.90;;;;;;5082629;28;20093;-81
2023/09/12 07:27:00;;;;;;;24.25;18.42;;;17.20;99.90;;;;;;5083268;28;20032;-80
2023/09/12 07:29:27;;;;;;;19.75;16.13;;;17.40;99.90;;;;;;5082103;28;20118;-80
2023/09/12 07:31:55;;;;;;;21.40;16.17;;;17.40;99.90;;;;;;5082680;28;20023;-81
2023/09/12 07:34:21;;;;;;;19.65;16.38;;;17.50;99.90;;;;;;5081909;28;20373;-81
2023/09/12 07:36:47;;;;;;;17.30;13.85;;;17.60;99.90;;;;;;5064641;28;20077;-81
2023/09/12 07:39:12;;;;;;;17.70;14.63;;;17.70;99.90;;;;;;5064316;28;20131;-81
2023/09/12 07:41:38;;;;;;;18.05;14.55;;;17.80;99.90;;;;;;5063676;28;20074;-81
2023/09/12 07:44:04;;;;;;;18.35;14.98;;;17.90;99.90;;;;;;5081443;28;20033;-81
2023/09/12 07:46:30;;;;;;;17.58;14.18;;;18.00;99.90;;;;;;5081708;28;20417;-81
2023/09/12 07:48:58;;;;;;;20.85;15.15;;;18.00;99.90;;;;;;5081239;28;20119;-81
2023/09/12 07:51:24;;;;;;;18.38;14.52;;;18.10;99.90;;;;;;5081054;28;20086;-80
2023/09/12 07:53:50;;;;;;;20.30;15.68;;;18.20;99.90;;;;;;5081334;28;20063;-80
2023/09/12 07:56:15;;;;;;;17.17;13.60;;;18.30;99.90;;;;;;5080698;28;20025;-81
2023/09/12 07:58:41;;;;;;;19.17;15.52;;;18.40;99.90;;;;;;5063132;28;20025;-81
2023/09/12 08:01:08;;;;;;;19.00;15.90;;;18.50;99.90;;;;;;5063734;28;20029;-81
2023/09/12 08:03:39;;;;;;;22.70;15.23;;;18.60;99.90;;;;;;5080860;28;20028;-80
2023/09/12 08:06:05;;;;;;;;;;;18.70;99.90;;;;;;5081361;28;20154;-80
2023/09/12 08:08:31;;;;;;;17.83;14.93;;;18.90;99.90;;;;;;5080606;28;19954;-81
2023/09/12 08:10:57;;;;;;;18.70;15.13;;;19.00;99.90;;;;;;5080039;28;20032;-81
2023/09/12 08:13:25;;;;;;;19.52;15.57;;;19.10;99.90;;;;;;5080374;28;20036;-81
2023/09/12 08:15:51;;;;;;;16.20;13.85;;;19.30;99.90;;;;;;5080927;28;20028;-81
2023/09/12 08:18:17;;;;;;;16.80;14.50;;;19.40;99.90;;;;;;5072621;28;20039;-81
2023/09/12 08:20:43;;;;;;;17.58;13.88;;;19.60;99.90;;;;;;5052914;28;20037;-81
2023/09/12 08:23:09;;;;;;;19.55;14.63;;;19.70;99.90;;;;;;5070385;28;20051;-81
2023/09/12 08:25:35;;;;;;;18.42;14.10;;;19.80;99.90;;;;;;5049543;28;20112;-81
2023/09/12 08:28:01;;;;;;;21.20;15.60;;;19.90;99.90;;;;;;5065528;28;20104;-81
2023/09/12 08:30:29;;;;;;;17.98;14.40;;;20.10;99.90;;;;;;5079806;28;20024;-81
2023/09/12 08:32:55;;;;;;;17.63;14.20;;;20.20;99.90;;;;;;5079944;28;20028;-80
2023/09/12 08:35:21;;;;;;;15.93;12.68;;;20.40;99.90;;;;;;5061286;28;20029;-80
2023/09/12 08:37:47;;;;;;;15.60;12.65;;;20.50;99.90;;;;;;5079345;28;20035;-81
2023/09/12 08:40:13;;;;;;;16.85;14.13;;;20.60;99.90;;;;;;5079227;28;20468;-81
2023/09/12 08:42:43;;;;;;;15.85;13.70;;;20.70;99.90;;;;;;5080023;28;20025;-81
2023/09/12 08:45:17;;;;;;;17.92;13.80;;;20.90;99.90;;;;;;5055364;28;20636;-81
2023/09/12 08:47:45;;;;;;;14.70;12.77;;;21.00;99.90;;;;;;5068634;28;20396;-81
2023/09/12 08:50:16;;;;;;;17.35;13.90;;;21.10;99.90;;;;;;5050362;28;20040;-80
2023/09/12 08:52:43;;;;;;;16.13;13.82;;;21.30;99.90;;;;;;5062303;28;20108;-82
2023/09/12 08:55:09;;;;;;;16.73;13.23;;;21.40;99.90;;;;;;5068071;28;20016;-81
2023/09/12 08:57:38;;;;;;;16.02;13.73;;;21.60;99.90;;;;;;5065301;28;20063;-80
2023/09/12 09:00:06;;;;;;;14.13;12.13;;;21.70;99.90;;;;;;5066819;28;20473;-82
2023/09/12 09:02:33;;;;;;;17.13;12.45;;;21.90;99.90;;;;;;5078651;28;20465;-84
2023/09/12 09:05:01;;;;;;;14.80;12.60;;;22.10;99.90;;;;;;5076427;28;20032;-83
2023/09/12 09:07:28;;;;;;;14.48;12.63;;;22.40;99.90;;;;;;5043972;28;20029;-83
2023/09/12 09:09:56;;;;;;;20.40;13.43;;;22.70;99.90;;;;;;5069081;28;20033;-82
2023/09/12 09:12:21;;;;;;;15.80;13.23;;;22.90;99.90;;;;;;5054010;28;20416;-82
2023/09/12 09:14:47;;;;;;;18.55;14.45;;;23.20;99.90;;;;;;5029448;28;20546;-82
2023/09/12 09:17:15;;;;;;;16.33;13.07;;;23.20;99.90;;;;;;5058031;28;20437;-82
2023/09/12 09:19:42;;;;;;;15.40;13.18;;;23.30;99.90;;;;;;5050038;28;20059;-82
2023/09/12 09:22:08;;;;;;;15.68;13.25;;;23.30;99.90;;;;;;5067416;28;20025;-82
2023/09/12 09:24:33;;;;;;;15.98;13.93;;;23.30;99.90;;;;;;5067405;28;20055;-82
2023/09/12 09:27:00;;;;;;;16.23;13.10;;;23.30;99.90;;;;;;5059504;28;20023;-81
2023/09/12 09:29:31;;;;;;;19.13;13.55;;;23.30;99.90;;;;;;5071596;28;20082;-83
2023/09/12 09:31:59;;;;;;;14.20;12.60;;;23.40;99.90;;;;;;5057362;28;20193;-83
2023/09/12 09:34:27;;;;;;;13.95;11.85;;;23.40;99.90;;;;;;5069510;28;20028;-82
2023/09/12 09:36:55;;;;;;;16.65;13.30;;;23.40;99.90;;;;;;5066923;28;20416;-83
2023/09/12 09:39:23;;;;;;;14.38;12.25;;;23.50;99.90;;;;;;5065835;28;20021;-83
2023/09/12 09:41:51;;;;;;;16.58;11.68;;;23.60;99.90;;;;;;5063115;28;20028;-82
2023/09/12 09:44:18;;;;;;;13.80;12.02;;;23.70;99.90;;;;;;5038186;28;20029;-83
2023/09/12 09:46:45;;;;;;;13.45;12.05;;;23.80;99.90;;;;;;5069150;28;20079;-84
2023/09/12 09:49:11;;;;;;;13.27;11.80;;;24.00;99.90;;;;;;5071217;28;20435;-84
2023/09/12 09:51:44;;;;;;;12.88;11.35;;;24.40;99.90;;;;;;5072459;28;20032;-82
2023/09/12 09:54:11;;;;;;;16.95;11.73;;;24.80;99.90;;;;;;5068159;28;20059;-82
2023/09/12 09:56:56;;;;;;;14.20;11.55;;;25.10;99.90;;;;;;5058581;28;20028;-83
2023/09/12 09:59:25;;;;;;;13.13;11.73;;;25.40;99.90;;;;;;5074693;28;20112;-83
2023/09/12 10:01:53;;;;;;;11.98;10.68;;;25.60;99.90;;;;;;5077219;28;20024;-82
2023/09/12 10:04:20;;;;;;;13.40;11.15;;;25.70;99.90;;;;;;5076303;28;20484;-82
2023/09/12 10:06:46;;;;;;;12.48;10.30;;;25.70;99.90;;;;;;5076698;28;20029;-83
2023/09/12 10:09:13;;;;;;;14.13;11.63;;;25.80;99.90;;;;;;5075587;28;20040;-82
2023/09/12 10:11:41;;;;;;;11.95;10.68;;;25.90;99.90;;;;;;5076077;28;20025;-83
2023/09/12 10:14:07;;;;;;;11.75;10.55;;;25.90;99.90;;;;;;5057010;28;20024;-82
2023/09/12 10:16:35;;;;;;;12.07;10.80;;;26.10;99.90;;;;;;5077288;28;20032;-83
2023/09/12 10:19:15;;;;;;;15.00;10.75;;;26.20;99.90;;;;;;5061128;28;20498;-83
2023/09/12 10:21:46;;;;;;;;;;;26.20;99.90;;;;;;5059512;28;20028;-84
2023/09/12 10:24:12;;;;;;;36.70;14.27;;;26.20;99.90;;;;;;5076486;28;19911;-85
2023/09/12 10:26:42;;;;;;;15.00;11.02;;;26.30;99.90;;;;;;5057269;28;20263;-85
2023/09/12 10:29:09;;;;;;;13.45;11.27;;;26.40;99.90;;;;;;5075548;28;20051;-85
2023/09/12 10:31:35;;;;;;;12.65;11.30;;;26.50;99.90;;;;;;5075723;28;20043;-84
2023/09/12 10:34:03;;;;;;;12.35;10.63;;;26.60;99.90;;;;;;5056876;28;20131;-85
2023/09/12 10:36:29;;;;;;;10.73;9.63;;;26.70;99.90;;;;;;5059088;28;20052;-84
2023/09/12 10:38:57;;;;;;;11.68;10.13;;;26.80;99.90;;;;;;5077291;28;20052;-85
2023/09/12 10:41:24;;;;;;;11.85;10.55;;;26.90;99.90;;;;;;5075628;28;20025;-84
2023/09/12 10:43:52;;;;;;;11.38;9.80;;;27.00;99.90;;;;;;5074172;28;20029;-83
2023/09/12 10:46:18;;;;;;;11.20;9.20;;;27.10;99.90;;;;;;5054728;28;20170;-85
2023/09/12 10:48:44;;;;;;;11.95;9.18;;;27.10;99.00;;;;;;5045576;28;20116;-82
2023/09/12 10:51:12;;;;;;;11.32;9.63;;;27.10;99.50;;;;;;5065864;28;20028;-84
2023/09/12 10:53:38;;;;;;;12.65;10.60;;;27.10;99.80;;;;;;5045382;28;20052;-85
2023/09/12 10:56:12;;;;;;;12.32;9.60;;;27.10;99.90;;;;;;5063573;28;20025;-85
2023/09/12 10:59:14;;;;;;;11.60;10.40;;;27.20;99.90;;;;;;5067215;28;20451;-84
2023/09/12 11:01:42;;;;;;;12.00;10.25;;;27.20;99.90;;;;;;5072433;28;20109;-84
2023/09/12 11:04:27;;;;;;;10.50;9.40;;;27.20;99.90;;;;;;5056024;28;20040;-84
2023/09/12 11:06:53;;;;;;;10.73;9.50;;;27.30;99.90;;;;;;5069320;28;20024;-83
2023/09/12 11:09:24;;;;;;;10.68;9.55;;;27.40;99.90;;;;;;5060204;28;20021;-84
2023/09/12 11:12:04;;;;;;;12.43;9.60;;;27.50;99.90;;;;;;5060025;28;20025;-83
2023/09/12 11:14:31;;;;;;;13.00;9.70;;;27.60;99.60;;;;;;5054296;28;20029;-84
2023/09/12 11:17:24;;;;;;;11.35;9.95;;;27.60;99.40;;;;;;5055543;28;20400;-81
2023/09/12 11:19:54;;;;;;;12.02;10.07;;;27.60;99.70;;;;;;5055628;28;20392;-84
2023/09/12 11:22:31;;;;;;;12.10;9.82;;;27.70;99.80;;;;;;5061018;28;20025;-80
2023/09/12 11:25:01;;;;;;;10.68;9.57;;;27.80;99.60;;;;;;5064658;28;20052;-83
2023/09/12 11:28:06;;;;;;;15.02;9.68;;;27.80;99.70;;;;;;5067061;28;20016;-84
2023/09/12 11:30:32;;;;;;;11.30;9.77;;;27.80;99.00;;;;;;5020647;28;20056;-84
2023/09/12 11:32:59;;;;;;;15.00;9.88;;;27.70;99.30;;;;;;5065101;28;20064;-84
2023/09/12 11:35:29;;;;;;;13.00;10.07;;;27.70;99.70;;;;;;5066437;28;20025;-84
2023/09/12 11:37:58;;;;;;;9.73;8.80;;;27.60;99.90;;;;;;5043212;28;20451;-84
2023/09/12 11:40:33;;;;;;;9.90;8.90;;;27.70;99.90;;;;;;5064977;28;20060;-84
2023/09/12 11:42:59;;;;;;;9.45;8.38;;;27.80;99.90;;;;;;5049038;28;20473;-84
2023/09/12 11:45:25;;;;;;;8.73;7.82;;;27.80;99.90;;;;;;5047954;28;20472;-83
2023/09/12 11:47:51;;;;;;;10.15;9.02;;;27.90;99.20;;;;;;5054689;28;20029;-82
2023/09/12 11:50:30;;;;;;;10.10;8.73;;;28.10;98.30;;;;;;5054141;28;20032;-81
2023/09/12 11:52:59;;;;;;;9.32;8.30;;;28.20;98.30;;;;;;5054812;28;20028;-81
2023/09/12 11:55:26;;;;;;;12.68;8.90;;;28.20;98.50;;;;;;5056926;28;20036;-81
2023/09/12 11:57:52;;;;;;;14.30;9.13;;;28.10;98.20;;;;;;5044958;28;20499;-81
2023/09/12 12:00:19;;;;;;;9.85;8.38;;;28.10;97.90;;;;;;5078354;28;20100;-81
2023/09/12 12:02:45;;;;;;;10.30;8.43;;;28.00;97.90;;;;;;5077984;28;20452;-81
2023/09/12 12:05:12;;;;;;;10.40;8.50;;;28.00;98.30;;;;;;5077614;28;20029;-82
2023/09/12 12:07:39;;;;;;;8.70;7.90;;;28.00;98.10;;;;;;5078063;28;20028;-81
2023/09/12 12:10:05;;;;;;;9.73;8.73;;;28.00;97.30;;;;;;5077706;28;20052;-81
2023/09/12 12:12:31;;;;;;;9.27;8.30;;;28.00;98.00;;;;;;5077549;28;20036;-81
2023/09/12 12:14:57;;;;;;;8.40;7.50;;;28.10;98.50;;;;;;5059901;28;20041;-82
2023/09/12 12:17:22;;;;;;;9.27;8.13;;;28.20;98.40;;;;;;5077556;28;20028;-81
2023/09/12 12:19:48;;;;;;;9.88;8.15;;;28.40;98.70;;;;;;5077583;28;20078;-81
2023/09/12 12:22:14;;;;;;;11.52;9.60;;;28.60;97.30;;;;;;5042958;28;20021;-81
2023/09/12 12:24:41;;;;;;;9.88;8.80;;;28.70;96.30;;;;;;5077517;28;20036;-81
2023/09/12 12:27:08;;;;;;;9.30;8.18;;;28.60;95.70;;;;;;5077343;28;20048;-81
2023/09/12 12:29:35;;;;;;;11.02;8.50;;;28.50;95.70;;;;;;5077218;28;20536;-81
2023/09/12 12:32:02;;;;;;;9.02;7.95;;;28.40;95.10;;;;;;5077086;28;20028;-81
2023/09/12 12:34:27;;;;;;;9.55;8.55;;;28.30;93.40;;;;;;5059215;28;20058;-81
2023/09/12 12:36:54;;;;;;;9.10;8.18;;;28.30;93.80;;;;;;5059439;28;20080;-82
2023/09/12 12:39:22;;;;;;;11.95;8.55;;;28.20;93.60;;;;;;5076784;28;20051;-82